Aérodrome :
LOGIN :

S'inscrire | Disclaimer

   EN    FR    IT 

 










Légende :    VFR   VFR Marginal   IFR   IFR Intensif   IFR Très Intensif
Visi : 
Plafond : 
>= 8 km
>= 3000ft
5 à 8 km
1000 à 3000 ft
1500m à 5 km
500 à 1000 ft
800 à 1500m
200 à 500 ft
< 800m
< 200 ft
Symboles :   Orages  Brouillard  Fortes neiges  Fortes précipitations  Vent > 20 kt
SIGMETs :   Divers  Orages  Givrage  Turbulence  Onde Orograph.  Cendres Volcan.







- Altitude de l'aérodrome : 28 ft
- Code IATA : SOZ
- Voir les cartes d'approche


LFKS - Solenzara

DERNIER METAR :
  • 280030Z AUTO 28012G26KT 240V320 9999 FEW078 SCT088 15/03 Q1006

METARs EXPIRÉS :
  • 280000Z AUTO 30011G24KT 250V350 9999 FEW080 15/05 Q1007
  • 272330Z AUTO 28012KT 240V330 9999 BKN082 15/06 Q1007
  • 272300Z AUTO 30012G22KT 240V350 9999 BKN080 15/07 Q1007
  • 272230Z AUTO VRB08KT 9999 FEW010 SCT084 14/07 Q1007
  • 272200Z AUTO 01005KT 320V060 9999 FEW011 SCT024 14/13 Q1007
  • 272130Z AUTO 03004KT 9999 FEW062 SCT072 15/13 Q1007

TAF TAF LFKS
Valide du 27 à 15h jusqu'au 28 à 15h UTC


271400Z 2715/2815 17015G30KT 9999 SCT020 BKN120
BECMG 2800/2802 28020G30KT CAVOK
PROB40
TEMPO 2801/2815 28025G40KT
Pas de NOTAMs connus pour ce terrain.
2 SIGMETs publiés pour la FIR Marseille (LFMM) :
 
Turbulence forte
LFMM SIGMET 3 VALID 272300/280300 LFPW
LFMM MARSEILLE FIR/UIR SEV TURB FCST WI N4115 E00430 - N4200 E00430 - N4215 E00230 - N4330 E00245 - N4415 E00445 - N4300 E00945 - N4115 E00945 SFC/FL060 STNR NC=
Onde orographique forte
LFMM SIGMET 2 VALID 272300/280300 LFPW
LFMM MARSEILLE FIR/UIR SEV MTW FCST WI N4315 E00930 - N4315 E00945 - N4115 E00945 - N4115 E00845 - N4230 E00815 FL060/240 STNR INTSF=



MET'MAP, la Météo Aéronautique d'un coup d'oeil ! - Copyright ORBIFLY Décembre 2007 - Disclaimer

ORBIFLY MET'MAP TEAM :

Programmation & Développement : Alexandra Zaïnal
Conception & Développement : Baudouin d'Aumeries
Co-Programmation & Développement : Marc-Olivier Méhu
Soutien technique & logistique : Manuel Goepfert

Contact : metmap@orbifly.com




SOURCES & CREDITS :

   NOAA